EGBB/BHX METAR and TAF weather

Enter ICAO airport designator
Station Type Date Time Source
EGBB METAR 2019/12/16 03:20 UTC NOAA

EGBB 160320Z 19009KT 160V220 CAVOK 04/03 Q0996


Station Type Date Time Source
EGBB Decoded METAR 2019/12/16 03:20 UTC NOAA

Birmingham / Airport, United Kingdom (EGBB) 52-27N 001-44W 0M
Dec 15, 2019 - 10:20 PM EST / 2019.12.16 0320 UTC
Wind: from the S (190 degrees) at 10 MPH (9 KT) (direction variable):0
Visibility: greater than 7 mile(s):0
Temperature: 39 F (4 C)
Dew Point: 37 F (3 C)
Relative Humidity: 93%
Pressure (altimeter): 29.41 in. Hg (0996 hPa)
ob: EGBB 160320Z 19009KT 160V220 CAVOK 04/03 Q0996
cycle: 3

Station Type Date Time Source
EGBB TAF 2019/12/15 18:09 UTC NOAA

TAF EGBB 151702Z 1518/1618 20009KT 9999 FEW030 PROB30
TEMPO 1518/1524 23015G25KT 6000 SHRA BKN014 PROB30 1602/1608 8000

Example: see airport list